Time;durP1;ratioP1;P1;durP2;ratioP2;P2;SDS_P1;SDS_P2;PMS_P1;PMS_P2;Temp;Humidity;BMP_temperature;BMP_pressure;BME280_temperature;BME280_humidity;BME280_pressure;Samples;Min_cycle;Max_cycle;Signal;HPM_P1;HPM_P2
2020/12/27 00:01:06;;;;;;;9.98;5.32;;;3.90;99.90;;;;;;5027417;28;20500;-67
2020/12/27 00:03:32;;;;;;;13.25;7.72;;;3.90;99.90;;;;;;5034237;28;20085;-71
2020/12/27 00:05:59;;;;;;;12.90;6.82;;;3.80;99.90;;;;;;5031127;28;20052;-69
2020/12/27 00:08:25;;;;;;;12.20;5.93;;;3.90;99.90;;;;;;5024009;28;20494;-72
2020/12/27 00:10:51;;;;;;;12.48;7.60;;;3.90;99.90;;;;;;5030122;28;20095;-66
2020/12/27 00:13:18;;;;;;;11.38;7.40;;;3.90;99.90;;;;;;5022771;28;20508;-66
2020/12/27 00:15:44;;;;;;;12.63;6.28;;;4.00;99.90;;;;;;5026969;28;20045;-67
2020/12/27 00:18:11;;;;;;;12.93;6.82;;;4.00;99.90;;;;;;5028034;28;20044;-68
2020/12/27 00:20:37;;;;;;;12.18;6.50;;;4.10;99.90;;;;;;5023614;28;20104;-70
2020/12/27 00:23:03;;;;;;;11.63;6.85;;;4.00;99.90;;;;;;5033426;28;20056;-67
2020/12/27 00:25:32;;;;;;;13.88;8.32;;;4.00;99.90;;;;;;5026404;28;20230;-68
2020/12/27 00:27:58;;;;;;;12.38;6.13;;;4.10;99.90;;;;;;5029344;28;20047;-67
2020/12/27 00:30:24;;;;;;;12.52;5.72;;;4.10;99.90;;;;;;5034465;28;20056;-71
2020/12/27 00:32:51;;;;;;;12.63;5.72;;;4.10;99.90;;;;;;5026053;28;20578;-67
2020/12/27 00:35:18;;;;;;;7.47;5.85;;;4.10;99.90;;;;;;5033713;28;20060;-66
2020/12/27 00:37:44;;;;;;;11.32;5.03;;;4.00;99.90;;;;;;5027104;28;20046;-69
2020/12/27 00:40:11;;;;;;;9.98;5.15;;;4.10;99.90;;;;;;5034301;28;20166;-67
2020/12/27 00:42:37;;;;;;;10.52;4.60;;;4.10;99.90;;;;;;5032783;28;20099;-70
2020/12/27 00:45:05;;;;;;;6.75;4.00;;;4.10;99.90;;;;;;5024922;28;20393;-67
2020/12/27 00:47:32;;;;;;;11.07;4.47;;;4.10;99.90;;;;;;5032106;28;20076;-66
2020/12/27 00:50:16;;;;;;;7.10;4.05;;;4.10;99.90;;;;;;5028937;28;20449;-72
2020/12/27 00:52:45;;;;;;;6.93;3.17;;;4.10;99.90;;;;;;5053873;28;20049;-68
2020/12/27 00:55:11;;;;;;;10.77;3.65;;;4.10;99.90;;;;;;5033050;28;20218;-68
2020/12/27 00:57:38;;;;;;;9.07;5.72;;;4.10;99.90;;;;;;5023891;28;20088;-67
2020/12/27 01:00:04;;;;;;;6.20;3.35;;;4.00;99.90;;;;;;5034356;28;20045;-69
2020/12/27 01:02:33;;;;;;;6.90;3.88;;;4.10;99.90;;;;;;5020704;28;20030;-67
2020/12/27 01:05:26;;;;;;;8.27;3.30;;;4.00;99.90;;;;;;5024181;28;20100;-67
2020/12/27 01:07:54;;;;;;;3.95;2.90;;;4.10;99.90;;;;;;5023467;28;20051;-69
2020/12/27 01:10:21;;;;;;;9.60;2.97;;;4.10;99.90;;;;;;5026561;28;20055;-67
2020/12/27 01:12:47;;;;;;;8.05;3.03;;;4.20;99.90;;;;;;5025671;28;20049;-67
2020/12/27 01:15:15;;;;;;;8.80;2.75;;;4.20;99.90;;;;;;5033904;28;20042;-70
2020/12/27 01:18:08;;;;;;;9.05;3.35;;;4.20;99.90;;;;;;5024138;28;20045;-67
2020/12/27 01:20:39;;;;;;;5.78;3.92;;;4.10;99.90;;;;;;5022186;28;20591;-69
2020/12/27 01:23:06;;;;;;;4.45;3.15;;;4.10;99.90;;;;;;5030417;28;20037;-67
2020/12/27 01:25:37;;;;;;;6.20;3.08;;;4.10;99.90;;;;;;5055966;28;20143;-71
2020/12/27 01:28:04;;;;;;;5.68;3.38;;;4.10;99.90;;;;;;5033235;28;20045;-68
2020/12/27 01:30:31;;;;;;;3.72;3.13;;;4.10;99.90;;;;;;5030475;28;20428;-67
2020/12/27 01:33:03;;;;;;;3.97;2.78;;;4.10;99.90;;;;;;5026839;28;20159;-73
2020/12/27 01:35:46;;;;;;;7.93;3.25;;;4.10;99.90;;;;;;5032242;28;20349;-68
2020/12/27 01:38:15;;;;;;;10.70;3.05;;;4.20;99.90;;;;;;5028295;28;20219;-71
2020/12/27 01:40:41;;;;;;;5.05;2.47;;;4.10;99.90;;;;;;5029916;28;20066;-68
2020/12/27 01:43:10;;;;;;;4.03;3.30;;;4.20;99.90;;;;;;5028853;28;20125;-67
2020/12/27 01:45:37;;;;;;;3.95;3.00;;;4.20;99.90;;;;;;5024391;28;20073;-67
2020/12/27 01:48:14;;;;;;;9.55;3.55;;;4.10;99.90;;;;;;5032023;28;20281;-69
2020/12/27 01:50:44;;;;;;;5.65;4.18;;;4.20;99.90;;;;;;5031863;28;20098;-66
2020/12/27 01:53:19;;;;;;;11.50;4.05;;;4.20;99.90;;;;;;5028494;28;20049;-69
2020/12/27 01:55:45;;;;;;;4.65;2.97;;;4.20;99.90;;;;;;5026520;28;20061;-68
2020/12/27 01:58:20;;;;;;;6.05;4.18;;;4.20;99.90;;;;;;5025337;28;20111;-69
2020/12/27 02:01:03;;;;;;;6.07;3.53;;;4.20;99.90;;;;;;5027189;28;20044;-74
2020/12/27 02:03:41;;;;;;;7.43;3.95;;;4.20;99.90;;;;;;5053746;28;20432;-71
2020/12/27 02:06:18;;;;;;;6.07;3.78;;;4.20;99.90;;;;;;5024809;28;20169;-72
2020/12/27 02:08:50;;;;;;;7.20;4.32;;;4.20;99.90;;;;;;5025099;28;20429;-69
2020/12/27 02:11:27;;;;;;;4.07;3.50;;;4.20;99.90;;;;;;5030693;28;20441;-74
2020/12/27 02:13:58;;;;;;;6.10;4.57;;;4.20;99.90;;;;;;5022136;28;20041;-70
2020/12/27 02:16:30;;;;;;;13.40;5.78;;;4.20;99.90;;;;;;5031476;28;20048;-68
2020/12/27 02:19:31;;;;;;;7.65;4.45;;;4.20;99.90;;;;;;5032172;28;20029;-66
2020/12/27 02:22:02;;;;;;;7.03;4.97;;;4.20;99.90;;;;;;5022136;28;20104;-70
2020/12/27 02:24:49;;;;;;;7.90;4.80;;;4.20;99.90;;;;;;5023191;28;20338;-67
2020/12/27 02:27:21;;;;;;;6.60;5.45;;;4.20;99.90;;;;;;5058386;28;20115;-68
2020/12/27 02:29:50;;;;;;;7.97;5.47;;;4.20;99.90;;;;;;5028292;28;20049;-70
2020/12/27 02:32:18;;;;;;;7.95;5.40;;;4.20;99.90;;;;;;5031707;28;20119;-70
2020/12/27 02:34:45;;;;;;;9.00;6.05;;;4.20;99.90;;;;;;5023825;28;20041;-69
2020/12/27 02:37:13;;;;;;;9.50;5.35;;;4.20;99.90;;;;;;5052281;28;20045;-67
2020/12/27 02:39:53;;;;;;;10.02;5.95;;;4.20;99.90;;;;;;5032594;28;20044;-67
2020/12/27 02:42:22;;;;;;;7.38;4.88;;;4.30;99.90;;;;;;5022625;28;20421;-67
2020/12/27 02:45:22;;;;;;;7.93;5.45;;;4.20;99.90;;;;;;5033318;28;20052;-67
2020/12/27 02:48:17;;;;;;;7.90;5.97;;;4.30;99.90;;;;;;4987296;28;20045;-68
2020/12/27 02:50:54;;;;;;;9.02;6.57;;;4.30;99.90;;;;;;5026241;28;20068;-70
2020/12/27 02:53:22;;;;;;;8.18;4.60;;;4.30;99.90;;;;;;5018103;28;20047;-69
2020/12/27 02:55:49;;;;;;;8.38;4.70;;;4.20;99.90;;;;;;5023166;28;20499;-69
2020/12/27 02:58:15;;;;;;;7.95;5.35;;;4.30;99.90;;;;;;5022108;28;20091;-67
2020/12/27 03:00:45;;;;;;;10.20;4.80;;;4.30;99.90;;;;;;5028323;28;20037;-71
2020/12/27 03:03:30;;;;;;;7.78;4.90;;;4.30;99.90;;;;;;5025569;28;20055;-70
2020/12/27 03:06:03;;;;;;;13.77;5.80;;;4.30;99.90;;;;;;5057050;28;20421;-67
2020/12/27 03:08:29;;;;;;;13.60;5.50;;;4.20;99.90;;;;;;5055702;28;20768;-71
2020/12/27 03:11:16;;;;;;;6.25;4.70;;;4.20;99.90;;;;;;4998719;28;20061;-69
2020/12/27 03:14:03;;;;;;;10.35;4.75;;;4.20;99.90;;;;;;5026933;28;20044;-67
2020/12/27 03:16:32;;;;;;;9.18;5.30;;;4.30;99.90;;;;;;5062636;28;20049;-69
2020/12/27 03:19:16;;;;;;;10.10;5.22;;;4.30;99.90;;;;;;5029959;28;20369;-67
2020/12/27 03:21:57;;;;;;;8.60;4.93;;;4.20;99.90;;;;;;5023990;28;20042;-71
2020/12/27 03:24:41;;;;;;;12.93;5.28;;;4.20;99.90;;;;;;5023168;28;20052;-67
2020/12/27 03:27:08;;;;;;;8.88;4.60;;;4.20;99.90;;;;;;5019279;28;20056;-70
2020/12/27 03:29:34;;;;;;;10.68;5.35;;;4.20;99.90;;;;;;5022390;28;20055;-68
2020/12/27 03:32:01;;;;;;;14.30;6.32;;;4.10;99.90;;;;;;5030374;28;20037;-68
2020/12/27 03:34:27;;;;;;;11.10;5.35;;;4.20;99.90;;;;;;5024754;28;20120;-67
2020/12/27 03:36:54;;;;;;;8.20;5.80;;;4.20;99.90;;;;;;5031745;28;20144;-69
2020/12/27 03:39:41;;;;;;;7.80;4.57;;;4.20;99.90;;;;;;5030026;28;20041;-68
2020/12/27 03:42:26;;;;;;;10.80;6.40;;;4.10;99.90;;;;;;5029896;28;20095;-69
2020/12/27 03:45:00;;;;;;;7.47;4.47;;;4.10;99.90;;;;;;5033239;28;20487;-72
2020/12/27 03:47:47;;;;;;;7.95;4.60;;;4.10;99.90;;;;;;5023664;28;20053;-67
2020/12/27 03:50:24;;;;;;;9.40;6.13;;;4.20;99.90;;;;;;5031999;28;20045;-67
2020/12/27 03:52:57;;;;;;;7.32;5.07;;;4.10;99.90;;;;;;5030858;28;20482;-67
2020/12/27 03:55:38;;;;;;;9.48;5.55;;;4.10;99.90;;;;;;5026355;28;20370;-68
2020/12/27 03:58:30;;;;;;;8.75;4.88;;;4.10;99.90;;;;;;5018945;28;20053;-66
2020/12/27 04:01:10;;;;;;;9.73;5.70;;;4.10;99.90;;;;;;5029851;28;20081;-72
2020/12/27 04:03:36;;;;;;;7.55;4.68;;;4.10;99.90;;;;;;5064708;28;20045;-68
2020/12/27 04:06:10;;;;;;;5.80;5.20;;;4.00;99.90;;;;;;5023224;28;21118;-67
2020/12/27 04:08:39;;;;;;;8.32;5.55;;;4.00;99.90;;;;;;5033294;28;20140;-66
2020/12/27 04:11:07;;;;;;;6.13;4.72;;;4.00;99.90;;;;;;5028543;28;20634;-70
2020/12/27 04:13:36;;;;;;;12.07;6.93;;;4.00;99.90;;;;;;5026754;28;20657;-70
2020/12/27 04:16:09;;;;;;;10.77;6.57;;;4.00;99.90;;;;;;5032284;28;20136;-68
2020/12/27 04:18:37;;;;;;;11.18;6.55;;;4.00;99.90;;;;;;5024977;28;20572;-72
2020/12/27 04:21:18;;;;;;;11.55;7.43;;;4.00;99.90;;;;;;5028922;28;20136;-67
2020/12/27 04:23:55;;;;;;;9.48;7.07;;;3.90;99.90;;;;;;5023635;28;20056;-67
2020/12/27 04:26:23;;;;;;;12.32;7.07;;;3.90;99.90;;;;;;5058215;28;20168;-69
2020/12/27 04:28:55;;;;;;;15.07;8.15;;;3.90;99.90;;;;;;5025254;28;20491;-71
2020/12/27 04:31:21;;;;;;;14.23;9.13;;;3.90;99.90;;;;;;5024919;28;20041;-69
2020/12/27 04:33:58;;;;;;;15.15;8.32;;;3.90;99.90;;;;;;5027737;28;20416;-68
2020/12/27 04:36:40;;;;;;;11.85;8.90;;;3.90;99.90;;;;;;5021396;28;20044;-68
2020/12/27 04:39:10;;;;;;;13.47;9.13;;;3.90;99.90;;;;;;5026253;28;20546;-70
2020/12/27 04:41:44;;;;;;;13.10;8.95;;;3.90;99.90;;;;;;5026306;28;20128;-68
2020/12/27 04:44:18;;;;;;;12.63;8.40;;;3.90;99.90;;;;;;5036233;28;20049;-67
2020/12/27 04:46:48;;;;;;;11.88;8.00;;;3.90;99.90;;;;;;5022852;28;20050;-67
2020/12/27 04:49:33;;;;;;;13.43;8.70;;;3.90;99.90;;;;;;5043217;28;20464;-69
2020/12/27 04:52:06;;;;;;;13.38;7.60;;;3.90;99.90;;;;;;5055364;28;20128;-68
2020/12/27 04:54:54;;;;;;;11.98;7.90;;;3.80;99.90;;;;;;5023653;28;20045;-70
2020/12/27 04:57:47;;;;;;;13.63;8.43;;;3.80;99.90;;;;;;5038068;28;20044;-69
2020/12/27 05:00:16;;;;;;;;;;;3.80;99.90;;;;;;5035760;28;20047;-69
2020/12/27 05:03:09;;;;;;;13.13;7.35;;;3.80;99.90;;;;;;5010341;28;19936;-67
2020/12/27 05:05:37;;;;;;;14.15;9.07;;;3.80;99.90;;;;;;5060746;28;20649;-68
2020/12/27 05:08:03;;;;;;;11.10;7.63;;;3.80;99.90;;;;;;5019682;28;20045;-68
2020/12/27 05:10:47;;;;;;;12.85;8.55;;;3.80;99.90;;;;;;5024332;28;20045;-67
2020/12/27 05:13:16;;;;;;;17.80;9.43;;;3.80;99.90;;;;;;5037146;28;20044;-68
2020/12/27 05:15:52;;;;;;;15.40;9.30;;;3.80;99.90;;;;;;5026437;28;20033;-72
2020/12/27 05:18:19;;;;;;;12.40;9.23;;;3.80;99.90;;;;;;5032707;28;20037;-68
2020/12/27 05:20:50;;;;;;;14.65;10.18;;;3.80;99.90;;;;;;5040436;28;20400;-66
2020/12/27 05:23:25;;;;;;;16.20;10.85;;;3.80;99.90;;;;;;5022444;28;20088;-69
2020/12/27 05:26:05;;;;;;;13.88;9.70;;;3.80;99.90;;;;;;5062869;28;20442;-69
2020/12/27 05:28:50;;;;;;;15.27;10.32;;;3.80;99.90;;;;;;5026336;28;20404;-68
2020/12/27 05:31:37;;;;;;;19.15;11.60;;;3.80;99.90;;;;;;5028042;28;20064;-68
2020/12/27 05:34:25;;;;;;;15.70;10.80;;;3.80;99.90;;;;;;5023771;28;20055;-70
2020/12/27 05:37:16;;;;;;;18.42;11.30;;;3.90;99.90;;;;;;5023543;28;20041;-69
2020/12/27 05:40:04;;;;;;;19.37;12.77;;;3.90;99.90;;;;;;5025454;28;20074;-67
2020/12/27 05:42:58;;;;;;;16.75;12.63;;;3.90;99.90;;;;;;5051869;28;20071;-70
2020/12/27 05:45:24;;;;;;;18.67;13.40;;;4.00;99.90;;;;;;5026132;28;20048;-68
2020/12/27 05:47:59;;;;;;;20.58;12.25;;;3.90;99.90;;;;;;5026282;28;20038;-67
2020/12/27 05:50:29;;;;;;;18.05;12.70;;;4.00;99.90;;;;;;5062319;28;20686;-69
2020/12/27 05:53:00;;;;;;;24.75;13.68;;;4.00;99.90;;;;;;5054163;28;20054;-71
2020/12/27 05:55:43;;;;;;;22.33;12.98;;;4.00;99.90;;;;;;5021889;28;20049;-69
2020/12/27 05:58:10;;;;;;;23.40;13.32;;;4.10;99.90;;;;;;5020499;28;20040;-69
2020/12/27 06:00:41;;;;;;;22.55;14.07;;;4.00;99.90;;;;;;5006812;28;20739;-67
2020/12/27 06:03:18;;;;;;;16.33;13.73;;;4.10;99.90;;;;;;5004985;28;20417;-69
2020/12/27 06:05:55;;;;;;;16.15;12.65;;;4.10;99.90;;;;;;5010663;28;20627;-67
2020/12/27 06:08:28;;;;;;;17.33;12.40;;;4.10;99.90;;;;;;5020509;28;20056;-70
2020/12/27 06:11:35;;;;;;;18.30;11.27;;;4.10;99.90;;;;;;5010454;28;20055;-68
2020/12/27 06:14:16;;;;;;;17.60;10.63;;;4.20;99.90;;;;;;5017177;28;20164;-70
2020/12/27 06:17:10;;;;;;;12.83;8.10;;;4.10;99.90;;;;;;5002399;28;20049;-69
2020/12/27 06:20:00;;;;;;;15.50;10.40;;;4.20;99.90;;;;;;5026828;28;20060;-72
2020/12/27 06:22:42;;;;;;;14.02;9.43;;;4.20;99.90;;;;;;5027139;28;20107;-66
2020/12/27 06:25:30;;;;;;;10.93;8.57;;;4.20;99.90;;;;;;5003198;28;20033;-67
2020/12/27 06:27:58;;;;;;;9.57;8.52;;;4.20;99.90;;;;;;5007907;28;20052;-69
2020/12/27 06:30:44;;;;;;;10.90;8.10;;;4.20;99.90;;;;;;5011903;28;20103;-67
2020/12/27 06:33:38;;;;;;;16.73;9.65;;;4.20;99.90;;;;;;5009049;28;20044;-67
2020/12/27 06:36:32;;;;;;;14.20;8.98;;;4.20;99.90;;;;;;5006046;28;20393;-68
2020/12/27 06:39:24;;;;;;;14.05;9.32;;;4.10;99.90;;;;;;5043976;28;20076;-67
2020/12/27 06:42:11;;;;;;;14.32;9.40;;;4.10;99.90;;;;;;5011261;28;20042;-71
2020/12/27 06:44:46;;;;;;;15.20;9.18;;;4.10;99.90;;;;;;5001152;28;20076;-67
2020/12/27 06:47:51;;;;;;;14.00;8.65;;;4.10;99.90;;;;;;5007791;28;20064;-67
2020/12/27 06:50:30;;;;;;;11.68;7.28;;;4.10;99.90;;;;;;5006954;28;20405;-70
2020/12/27 06:53:36;;;;;;;13.07;8.63;;;4.10;99.90;;;;;;5006426;28;20096;-69
2020/12/27 06:56:14;;;;;;;12.05;7.63;;;4.10;99.90;;;;;;5003857;28;20037;-67
2020/12/27 06:59:23;;;;;;;9.18;6.25;;;4.10;99.90;;;;;;5002981;28;20144;-69
2020/12/27 07:02:07;;;;;;;10.45;7.07;;;4.10;99.90;;;;;;5011650;28;20049;-74
2020/12/27 07:04:37;;;;;;;11.38;6.43;;;4.10;99.90;;;;;;5005617;28;20049;-69
2020/12/27 07:07:04;;;;;;;11.75;6.70;;;4.10;99.90;;;;;;5014727;28;20121;-71
2020/12/27 07:09:32;;;;;;;13.80;7.80;;;4.10;99.90;;;;;;5010499;28;20103;-69
2020/12/27 07:12:06;;;;;;;19.88;9.63;;;4.10;99.90;;;;;;5014043;28;20043;-68
2020/12/27 07:14:38;;;;;;;14.65;7.82;;;4.10;99.90;;;;;;5009487;28;20050;-68
2020/12/27 07:17:06;;;;;;;12.48;6.72;;;4.10;99.90;;;;;;5010618;28;20049;-71
2020/12/27 07:19:37;;;;;;;7.68;6.68;;;4.00;99.90;;;;;;5017227;28;20076;-68
2020/12/27 07:22:05;;;;;;;12.07;7.88;;;4.10;99.90;;;;;;5014827;28;20487;-70
2020/12/27 07:24:37;;;;;;;10.27;6.75;;;4.00;99.90;;;;;;5010237;28;20861;-68
2020/12/27 07:27:04;;;;;;;13.07;5.50;;;4.00;99.90;;;;;;5012273;28;20477;-67
2020/12/27 07:29:32;;;;;;;9.80;7.05;;;4.00;99.90;;;;;;5008276;28;20049;-67
2020/12/27 07:31:59;;;;;;;15.10;6.65;;;4.00;99.90;;;;;;5016632;28;20045;-70
2020/12/27 07:34:28;;;;;;;11.57;7.38;;;4.00;99.90;;;;;;5011897;28;20049;-67
2020/12/27 07:37:01;;;;;;;12.15;7.63;;;4.10;99.90;;;;;;5005411;28;20053;-66
2020/12/27 07:39:57;;;;;;;9.20;6.85;;;4.10;99.90;;;;;;5009905;28;20076;-70
2020/12/27 07:42:28;;;;;;;12.93;6.80;;;4.10;99.90;;;;;;5009256;28;20140;-67
2020/12/27 07:44:58;;;;;;;11.48;7.68;;;4.10;99.90;;;;;;5008869;28;20133;-72
2020/12/27 07:47:25;;;;;;;15.40;8.25;;;4.10;99.90;;;;;;5008465;28;20409;-70
2020/12/27 07:50:11;;;;;;;13.82;7.35;;;4.00;99.90;;;;;;5008000;28;20044;-67
2020/12/27 07:52:57;;;;;;;12.02;8.52;;;4.10;99.90;;;;;;5008985;28;20132;-68
2020/12/27 07:55:27;;;;;;;7.18;5.82;;;4.10;99.90;;;;;;5010360;28;20061;-70
2020/12/27 07:57:54;;;;;;;;;;;4.10;99.90;;;;;;5008777;28;20428;-66
2020/12/27 08:00:26;;;;;;;15.13;7.57;;;4.00;99.90;;;;;;5008172;28;19997;-67
2020/12/27 08:02:54;;;;;;;11.05;7.35;;;4.00;99.90;;;;;;5009576;28;20407;-69
2020/12/27 08:05:21;;;;;;;11.15;6.97;;;4.00;99.90;;;;;;5006292;28;20054;-72
2020/12/27 08:07:48;;;;;;;8.57;6.53;;;4.00;99.90;;;;;;5017235;28;20045;-70
2020/12/27 08:10:20;;;;;;;8.95;7.10;;;4.00;99.90;;;;;;5010964;28;20636;-67
2020/12/27 08:12:51;;;;;;;10.23;6.13;;;4.00;99.90;;;;;;5006557;28;20046;-67
2020/12/27 08:15:18;;;;;;;8.52;6.78;;;3.90;99.90;;;;;;5007158;28;20068;-69
2020/12/27 08:18:14;;;;;;;9.88;7.68;;;3.90;99.90;;;;;;5009580;28;20045;-70
2020/12/27 08:20:50;;;;;;;12.15;6.35;;;3.90;99.90;;;;;;5003682;28;20311;-69
2020/12/27 08:23:18;;;;;;;12.63;7.57;;;4.00;99.90;;;;;;5005338;28;20128;-68
2020/12/27 08:25:45;;;;;;;12.35;7.30;;;4.00;99.90;;;;;;5007397;28;20091;-67
2020/12/27 08:28:14;;;;;;;10.57;7.05;;;4.00;99.90;;;;;;5006844;28;20130;-67
2020/12/27 08:30:41;;;;;;;8.90;6.03;;;4.00;99.90;;;;;;5015551;28;20143;-69
2020/12/27 08:33:16;;;;;;;9.27;6.05;;;3.90;99.90;;;;;;5027563;28;20053;-72
2020/12/27 08:35:51;;;;;;;9.80;6.00;;;3.90;99.90;;;;;;5036386;28;20053;-68
2020/12/27 08:38:47;;;;;;;8.05;6.72;;;3.90;99.90;;;;;;5026749;28;20064;-71
2020/12/27 08:41:16;;;;;;;6.45;5.85;;;3.90;99.90;;;;;;5022873;28;20474;-69
2020/12/27 08:44:02;;;;;;;13.02;6.95;;;3.90;99.90;;;;;;5025470;28;20053;-67
2020/12/27 08:46:40;;;;;;;12.50;5.85;;;3.90;99.90;;;;;;5034134;28;20063;-68
2020/12/27 08:49:43;;;;;;;6.30;5.38;;;3.90;99.90;;;;;;5027314;28;20099;-66
2020/12/27 08:52:22;;;;;;;7.85;6.20;;;3.90;99.90;;;;;;5023981;28;20067;-72
2020/12/27 08:55:03;;;;;;;6.68;5.15;;;3.90;99.90;;;;;;5029413;28;20048;-68
2020/12/27 08:57:31;;;;;;;6.38;5.28;;;3.90;99.90;;;;;;5027490;28;20053;-66
2020/12/27 08:59:58;;;;;;;8.90;5.22;;;4.00;99.90;;;;;;5033692;28;20116;-72
2020/12/27 09:02:25;;;;;;;5.72;5.13;;;4.00;99.90;;;;;;5027614;28;20673;-70
2020/12/27 09:05:29;;;;;;;8.80;6.40;;;3.90;99.90;;;;;;5032294;28;20497;-66
2020/12/27 09:07:56;;;;;;;8.48;6.15;;;3.90;99.90;;;;;;5006490;28;20050;-70
2020/12/27 09:10:29;;;;;;;9.57;5.60;;;3.90;99.90;;;;;;5020484;28;20049;-68
2020/12/27 09:13:05;;;;;;;12.50;6.10;;;3.90;99.90;;;;;;5029197;28;20481;-70
2020/12/27 09:15:43;;;;;;;8.73;5.57;;;3.90;99.90;;;;;;5033861;28;20527;-67
2020/12/27 09:18:11;;;;;;;8.57;5.38;;;3.90;99.90;;;;;;5024552;28;20148;-66
2020/12/27 09:20:40;;;;;;;14.02;5.38;;;3.90;99.90;;;;;;5033511;28;20065;-68
2020/12/27 09:23:25;;;;;;;10.48;6.20;;;3.90;99.90;;;;;;5031197;28;20036;-68
2020/12/27 09:26:08;;;;;;;6.00;5.10;;;3.90;99.90;;;;;;5025528;28;20048;-66
2020/12/27 09:28:36;;;;;;;8.27;6.07;;;3.90;99.90;;;;;;5029236;28;20048;-67
2020/12/27 09:31:06;;;;;;;7.57;4.93;;;3.90;99.90;;;;;;5032825;28;20827;-67
2020/12/27 09:33:36;;;;;;;7.40;5.20;;;3.90;99.90;;;;;;5024829;28;20053;-67
2020/12/27 09:36:07;;;;;;;8.45;5.53;;;3.90;99.90;;;;;;5034366;28;20478;-68
2020/12/27 09:38:39;;;;;;;9.55;6.85;;;3.90;99.90;;;;;;5025613;28;20144;-67
2020/12/27 09:41:14;;;;;;;9.23;6.85;;;4.00;99.90;;;;;;5027403;28;20050;-68
2020/12/27 09:43:50;;;;;;;14.18;8.00;;;3.90;99.90;;;;;;5023928;28;20315;-69
2020/12/27 09:46:35;;;;;;;9.63;6.65;;;3.90;99.90;;;;;;5024343;28;20037;-71
2020/12/27 09:49:20;;;;;;;11.48;7.13;;;4.00;99.90;;;;;;5023677;28;20111;-68
2020/12/27 09:52:00;;;;;;;14.20;8.43;;;4.00;99.90;;;;;;5027120;28;20096;-70
2020/12/27 09:54:27;;;;;;;14.00;6.28;;;4.00;99.90;;;;;;5022739;28;20080;-72
2020/12/27 09:56:53;;;;;;;6.40;4.93;;;4.00;99.90;;;;;;5027969;28;20057;-67
2020/12/27 09:59:19;;;;;;;6.55;5.28;;;4.00;99.90;;;;;;5025883;28;20060;-72
2020/12/27 10:01:46;;;;;;;10.80;6.55;;;4.10;99.90;;;;;;5027978;28;20128;-69
2020/12/27 10:04:12;;;;;;;6.95;4.85;;;4.00;99.90;;;;;;5027145;28;20041;-69
2020/12/27 10:06:38;;;;;;;9.38;4.97;;;4.10;99.90;;;;;;5027249;28;20123;-70
2020/12/27 10:09:05;;;;;;;7.93;5.45;;;4.00;99.90;;;;;;5028784;28;20049;-69
2020/12/27 10:11:31;;;;;;;8.40;4.50;;;4.00;99.90;;;;;;5023342;28;20072;-67
2020/12/27 10:13:58;;;;;;;7.20;5.30;;;4.10;99.90;;;;;;5027398;28;20373;-67
2020/12/27 10:16:24;;;;;;;6.78;4.47;;;4.00;99.90;;;;;;5030745;28;20073;-69
2020/12/27 10:18:51;;;;;;;6.60;4.72;;;4.00;99.90;;;;;;5022582;28;20094;-68
2020/12/27 10:21:17;;;;;;;5.13;4.53;;;4.00;99.90;;;;;;5010627;28;20129;-73
2020/12/27 10:23:44;;;;;;;6.50;4.30;;;4.00;99.90;;;;;;5009852;28;20126;-67
2020/12/27 10:26:12;;;;;;;8.10;5.30;;;4.00;99.90;;;;;;5004392;28;20127;-69
2020/12/27 10:28:39;;;;;;;5.72;5.03;;;4.00;99.90;;;;;;5014541;28;20156;-70
2020/12/27 10:31:09;;;;;;;6.68;5.32;;;4.00;99.90;;;;;;5002899;28;20054;-68
2020/12/27 10:33:35;;;;;;;10.90;6.38;;;4.00;99.90;;;;;;5003403;28;20093;-70
2020/12/27 10:36:02;;;;;;;12.25;7.28;;;4.00;99.90;;;;;;5005609;28;20038;-67
2020/12/27 10:38:28;;;;;;;12.40;7.18;;;3.90;99.90;;;;;;5004552;28;20060;-69
2020/12/27 10:41:12;;;;;;;16.20;8.15;;;3.90;99.90;;;;;;5012421;28;20088;-72
2020/12/27 10:43:39;;;;;;;13.40;7.60;;;3.90;99.90;;;;;;5013216;28;20053;-70
2020/12/27 10:46:05;;;;;;;10.95;7.72;;;3.90;99.90;;;;;;5006412;28;20498;-71
2020/12/27 10:48:35;;;;;;;27.67;7.70;;;3.90;99.90;;;;;;5009502;28;20422;-68
2020/12/27 10:51:02;;;;;;;12.90;8.45;;;4.00;99.90;;;;;;5009438;28;20069;-66
2020/12/27 10:53:28;;;;;;;16.52;7.15;;;3.90;99.90;;;;;;5009784;28;20152;-71
2020/12/27 10:55:55;;;;;;;12.55;9.18;;;4.00;99.90;;;;;;5012738;28;20134;-67
2020/12/27 10:58:21;;;;;;;13.00;8.23;;;4.00;99.90;;;;;;5007034;28;20077;-66
2020/12/27 11:00:47;;;;;;;12.02;6.93;;;4.00;99.90;;;;;;5010031;28;20091;-67
2020/12/27 11:03:15;;;;;;;12.10;7.97;;;4.00;99.90;;;;;;5006780;28;20066;-68
2020/12/27 11:05:41;;;;;;;23.92;8.32;;;4.00;99.90;;;;;;5006419;28;20034;-66
2020/12/27 11:08:08;;;;;;;10.25;7.32;;;3.90;99.90;;;;;;5007838;28;20103;-67
2020/12/27 11:10:35;;;;;;;13.95;7.55;;;4.00;99.90;;;;;;5003715;28;20037;-68
2020/12/27 11:13:01;;;;;;;11.82;7.50;;;4.00;99.90;;;;;;5013839;28;20474;-67
2020/12/27 11:15:32;;;;;;;10.75;7.70;;;4.00;99.90;;;;;;5006545;28;20050;-68
2020/12/27 11:18:01;;;;;;;17.75;9.48;;;4.00;99.90;;;;;;5008022;28;20697;-69
2020/12/27 11:20:28;;;;;;;12.20;7.68;;;4.00;99.90;;;;;;5005185;28;20092;-69
2020/12/27 11:22:59;;;;;;;13.32;7.32;;;4.00;99.90;;;;;;5001663;28;20054;-68
2020/12/27 11:25:26;;;;;;;10.05;6.30;;;4.00;99.90;;;;;;5011497;28;20042;-72
2020/12/27 11:27:53;;;;;;;15.52;7.00;;;4.00;99.90;;;;;;5003448;28;20456;-66
2020/12/27 11:30:19;;;;;;;11.27;6.43;;;4.00;99.90;;;;;;5006554;28;20103;-68
2020/12/27 11:32:46;;;;;;;11.77;7.03;;;4.00;99.90;;;;;;5002823;28;21468;-67
2020/12/27 11:35:12;;;;;;;9.52;5.82;;;4.00;99.90;;;;;;5006643;28;20095;-69
2020/12/27 11:37:39;;;;;;;14.15;6.88;;;4.00;99.90;;;;;;5007350;28;20077;-71
2020/12/27 11:40:06;;;;;;;12.43;7.15;;;3.90;99.90;;;;;;5012414;28;20971;-69
2020/12/27 11:42:32;;;;;;;12.90;6.10;;;3.90;99.90;;;;;;5003056;28;20649;-68
2020/12/27 11:44:58;;;;;;;10.85;7.07;;;3.90;99.90;;;;;;5009847;28;20240;-69
2020/12/27 11:47:25;;;;;;;10.63;6.65;;;3.90;99.90;;;;;;5002471;28;20139;-66
2020/12/27 11:49:52;;;;;;;12.85;6.07;;;3.90;99.90;;;;;;5006189;28;20446;-68
2020/12/27 11:52:18;;;;;;;12.25;6.90;;;3.80;99.90;;;;;;5008954;28;20776;-69
2020/12/27 11:54:45;;;;;;;14.18;5.95;;;3.90;99.90;;;;;;5008598;28;20132;-68
2020/12/27 11:57:11;;;;;;;12.68;6.40;;;3.80;99.90;;;;;;5008753;28;20093;-67
2020/12/27 11:59:37;;;;;;;14.13;6.13;;;3.80;99.90;;;;;;5007752;28;20093;-67
2020/12/27 12:02:04;;;;;;;12.02;5.45;;;3.80;99.90;;;;;;5012150;28;20096;-68
2020/12/27 12:04:30;;;;;;;9.68;5.63;;;3.80;99.90;;;;;;5007678;28;20754;-70
2020/12/27 12:06:56;;;;;;;6.57;4.78;;;3.80;99.90;;;;;;5010414;28;20686;-69
2020/12/27 12:09:23;;;;;;;12.30;5.15;;;3.80;99.90;;;;;;5017419;28;20085;-68
2020/12/27 12:11:49;;;;;;;8.50;4.80;;;3.80;99.90;;;;;;5010702;28;20049;-67
2020/12/27 12:14:16;;;;;;;16.63;7.05;;;3.80;99.90;;;;;;5007195;28;20046;-69
2020/12/27 12:16:42;;;;;;;9.15;5.57;;;3.80;99.90;;;;;;5006683;28;20038;-67
2020/12/27 12:19:09;;;;;;;9.85;4.85;;;3.70;99.90;;;;;;5008405;28;20984;-68
2020/12/27 12:21:36;;;;;;;11.20;5.18;;;3.70;99.90;;;;;;5017458;28;20045;-69
2020/12/27 12:24:02;;;;;;;12.38;6.13;;;3.60;99.90;;;;;;5007762;28;20048;-68
2020/12/27 12:26:31;;;;;;;10.93;5.80;;;3.60;99.90;;;;;;5007102;28;20038;-70
2020/12/27 12:28:58;;;;;;;13.50;5.60;;;3.60;99.90;;;;;;5007672;28;20058;-71
2020/12/27 12:31:26;;;;;;;12.65;5.20;;;3.60;99.90;;;;;;5007113;28;20579;-69
2020/12/27 12:33:53;;;;;;;14.27;4.85;;;3.60;99.90;;;;;;5010194;28;20045;-69
2020/12/27 12:36:24;;;;;;;7.43;4.45;;;3.50;99.90;;;;;;5010282;28;20156;-68
2020/12/27 12:38:51;;;;;;;12.40;5.82;;;3.50;99.90;;;;;;5006211;28;20133;-72
2020/12/27 12:41:26;;;;;;;10.23;5.00;;;3.50;99.90;;;;;;5015289;28;20037;-66
2020/12/27 12:43:53;;;;;;;13.82;5.47;;;3.50;99.90;;;;;;5004663;28;20052;-67
2020/12/27 12:46:23;;;;;;;14.35;5.80;;;3.50;99.90;;;;;;5010854;28;20558;-67
2020/12/27 12:48:51;;;;;;;13.15;5.45;;;3.50;99.90;;;;;;5010669;28;20514;-66
2020/12/27 12:51:18;;;;;;;9.27;5.50;;;3.40;99.90;;;;;;5006569;28;20140;-68
2020/12/27 12:53:44;;;;;;;8.70;5.18;;;3.40;99.90;;;;;;5008786;28;20515;-68
2020/12/27 12:56:11;;;;;;;7.75;5.05;;;3.40;99.90;;;;;;5005747;28;20416;-67
2020/12/27 12:58:39;;;;;;;20.52;5.50;;;3.40;99.90;;;;;;5009528;28;20092;-70
2020/12/27 13:01:07;;;;;;;10.82;6.22;;;3.40;99.90;;;;;;5005445;28;20038;-69
2020/12/27 13:03:34;;;;;;;14.07;5.90;;;3.40;99.90;;;;;;5006268;28;20095;-70
2020/12/27 13:06:01;;;;;;;13.73;5.35;;;3.40;99.90;;;;;;5004844;28;20038;-71
2020/12/27 13:08:27;;;;;;;9.48;5.60;;;3.30;99.90;;;;;;5006181;28;20038;-68
2020/12/27 13:10:54;;;;;;;8.75;4.75;;;3.30;99.90;;;;;;5013571;28;20037;-66
2020/12/27 13:13:20;;;;;;;14.13;5.85;;;3.40;99.90;;;;;;5011030;28;20038;-72
2020/12/27 13:15:47;;;;;;;8.95;6.28;;;3.40;99.90;;;;;;5008204;28;20041;-69
2020/12/27 13:18:14;;;;;;;18.63;6.18;;;3.30;99.90;;;;;;5016507;28;20139;-68
2020/12/27 13:21:01;;;;;;;13.63;6.65;;;3.40;99.90;;;;;;5025440;28;20044;-72